sensor_id;sensor_type;location;lat;lon;timestamp;P1;durP1;ratioP1;P2;durP2;ratioP2
948;SDS011;461;51.436;7.312;2023-07-29T00:02:20;10.27;;;5.20;;
948;SDS011;461;51.436;7.312;2023-07-29T00:04:47;8.43;;;5.30;;
948;SDS011;461;51.436;7.312;2023-07-29T00:07:13;5.40;;;4.90;;
948;SDS011;461;51.436;7.312;2023-07-29T00:09:39;7.40;;;4.97;;
948;SDS011;461;51.436;7.312;2023-07-29T00:12:05;5.83;;;4.60;;
948;SDS011;461;51.436;7.312;2023-07-29T00:14:31;4.80;;;4.40;;
948;SDS011;461;51.436;7.312;2023-07-29T00:16:57;4.70;;;4.20;;
948;SDS011;461;51.436;7.312;2023-07-29T00:19:23;4.17;;;3.77;;
948;SDS011;461;51.436;7.312;2023-07-29T00:21:50;4.27;;;3.90;;
948;SDS011;461;51.436;7.312;2023-07-29T00:24:16;5.20;;;4.30;;
948;SDS011;461;51.436;7.312;2023-07-29T00:26:42;5.10;;;4.60;;
948;SDS011;461;51.436;7.312;2023-07-29T00:29:08;6.77;;;5.07;;
948;SDS011;461;51.436;7.312;2023-07-29T00:31:34;9.80;;;4.87;;
948;SDS011;461;51.436;7.312;2023-07-29T00:34:00;6.40;;;5.07;;
948;SDS011;461;51.436;7.312;2023-07-29T00:36:26;5.73;;;4.57;;
948;SDS011;461;51.436;7.312;2023-07-29T00:38:52;5.37;;;4.87;;
948;SDS011;461;51.436;7.312;2023-07-29T00:41:19;5.13;;;4.63;;
948;SDS011;461;51.436;7.312;2023-07-29T00:43:47;7.70;;;5.17;;
948;SDS011;461;51.436;7.312;2023-07-29T00:46:13;7.30;;;5.63;;
948;SDS011;461;51.436;7.312;2023-07-29T00:48:39;6.00;;;5.43;;
948;SDS011;461;51.436;7.312;2023-07-29T00:51:05;5.37;;;4.87;;
948;SDS011;461;51.436;7.312;2023-07-29T00:53:31;8.17;;;5.47;;
948;SDS011;461;51.436;7.312;2023-07-29T00:55:58;5.37;;;4.73;;
948;SDS011;461;51.436;7.312;2023-07-29T00:58:24;5.10;;;4.70;;
948;SDS011;461;51.436;7.312;2023-07-29T01:03:54;4.90;;;4.40;;
948;SDS011;461;51.436;7.312;2023-07-29T01:06:34;9.30;;;4.60;;
948;SDS011;461;51.436;7.312;2023-07-29T01:09:06;5.03;;;4.50;;
948;SDS011;461;51.436;7.312;2023-07-29T01:14:14;7.80;;;6.37;;
948;SDS011;461;51.436;7.312;2023-07-29T01:16:42;4.53;;;4.13;;
948;SDS011;461;51.436;7.312;2023-07-29T01:19:15;3.80;;;3.50;;
948;SDS011;461;51.436;7.312;2023-07-29T01:21:48;4.30;;;3.90;;
948;SDS011;461;51.436;7.312;2023-07-29T01:24:15;5.83;;;4.03;;
948;SDS011;461;51.436;7.312;2023-07-29T01:26:41;3.40;;;2.97;;
948;SDS011;461;51.436;7.312;2023-07-29T01:29:07;4.00;;;3.43;;
948;SDS011;461;51.436;7.312;2023-07-29T01:31:34;4.23;;;3.63;;
948;SDS011;461;51.436;7.312;2023-07-29T01:34:13;5.20;;;4.70;;
948;SDS011;461;51.436;7.312;2023-07-29T01:36:43;5.17;;;3.93;;
948;SDS011;461;51.436;7.312;2023-07-29T01:39:11;4.17;;;3.80;;
948;SDS011;461;51.436;7.312;2023-07-29T01:41:37;4.40;;;4.00;;
948;SDS011;461;51.436;7.312;2023-07-29T07:14:13;7.10;;;4.20;;
948;SDS011;461;51.436;7.312;2023-07-29T07:16:39;4.13;;;3.13;;
948;SDS011;461;51.436;7.312;2023-07-29T07:19:10;4.17;;;2.87;;
948;SDS011;461;51.436;7.312;2023-07-29T07:45:00;2.50;;;1.80;;
948;SDS011;461;51.436;7.312;2023-07-29T07:47:26;3.23;;;2.17;;
948;SDS011;461;51.436;7.312;2023-07-29T07:49:52;6.37;;;2.17;;
948;SDS011;461;51.436;7.312;2023-07-29T07:52:18;2.07;;;1.70;;
948;SDS011;461;51.436;7.312;2023-07-29T07:54:44;3.20;;;1.97;;
948;SDS011;461;51.436;7.312;2023-07-29T07:57:11;2.93;;;2.63;;
948;SDS011;461;51.436;7.312;2023-07-29T07:59:37;3.07;;;2.10;;
948;SDS011;461;51.436;7.312;2023-07-29T08:08:10;3.40;;;2.00;;
948;SDS011;461;51.436;7.312;2023-07-29T08:10:36;2.07;;;1.87;;
948;SDS011;461;51.436;7.312;2023-07-29T08:13:02;2.30;;;1.67;;
948;SDS011;461;51.436;7.312;2023-07-29T08:15:28;2.70;;;2.20;;
948;SDS011;461;51.436;7.312;2023-07-29T08:17:54;2.63;;;2.40;;
948;SDS011;461;51.436;7.312;2023-07-29T08:20:20;1.93;;;1.60;;
948;SDS011;461;51.436;7.312;2023-07-29T08:29:03;6.63;;;2.30;;
948;SDS011;461;51.436;7.312;2023-07-29T08:49:46;1.80;;;1.70;;
948;SDS011;461;51.436;7.312;2023-07-29T08:52:13;2.33;;;1.70;;
948;SDS011;461;51.436;7.312;2023-07-29T08:54:40;2.27;;;1.70;;
948;SDS011;461;51.436;7.312;2023-07-29T08:57:06;1.87;;;1.37;;
948;SDS011;461;51.436;7.312;2023-07-29T08:59:32;2.10;;;1.50;;
948;SDS011;461;51.436;7.312;2023-07-29T09:01:59;1.73;;;1.50;;
948;SDS011;461;51.436;7.312;2023-07-29T09:10:34;2.63;;;1.43;;
948;SDS011;461;51.436;7.312;2023-07-29T09:13:01;1.60;;;1.30;;
948;SDS011;461;51.436;7.312;2023-07-29T09:15:32;3.23;;;2.10;;
948;SDS011;461;51.436;7.312;2023-07-29T09:21:01;1.80;;;1.50;;
948;SDS011;461;51.436;7.312;2023-07-29T09:23:28;1.70;;;1.50;;
948;SDS011;461;51.436;7.312;2023-07-29T09:43:54;1.30;;;1.13;;
948;SDS011;461;51.436;7.312;2023-07-29T09:46:22;1.70;;;1.27;;
948;SDS011;461;51.436;7.312;2023-07-29T09:48:49;1.40;;;1.30;;
948;SDS011;461;51.436;7.312;2023-07-29T09:51:15;1.60;;;1.20;;
948;SDS011;461;51.436;7.312;2023-07-29T09:53:42;1.60;;;1.50;;
948;SDS011;461;51.436;7.312;2023-07-29T09:56:08;1.70;;;1.40;;
948;SDS011;461;51.436;7.312;2023-07-29T09:58:35;1.70;;;1.30;;
948;SDS011;461;51.436;7.312;2023-07-29T10:01:03;1.80;;;1.50;;
948;SDS011;461;51.436;7.312;2023-07-29T10:03:29;2.60;;;2.00;;
948;SDS011;461;51.436;7.312;2023-07-29T10:05:55;1.90;;;1.60;;
948;SDS011;461;51.436;7.312;2023-07-29T10:08:22;3.03;;;1.60;;
948;SDS011;461;51.436;7.312;2023-07-29T10:10:49;2.17;;;1.70;;
948;SDS011;461;51.436;7.312;2023-07-29T10:13:16;3.03;;;1.60;;
948;SDS011;461;51.436;7.312;2023-07-29T10:15:43;1.90;;;1.43;;
948;SDS011;461;51.436;7.312;2023-07-29T10:18:09;1.77;;;1.10;;
948;SDS011;461;51.436;7.312;2023-07-29T10:20:36;1.60;;;1.50;;
948;SDS011;461;51.436;7.312;2023-07-29T10:23:02;2.00;;;1.70;;
948;SDS011;461;51.436;7.312;2023-07-29T10:25:38;1.53;;;1.40;;
948;SDS011;461;51.436;7.312;2023-07-29T10:28:07;1.70;;;1.50;;
948;SDS011;461;51.436;7.312;2023-07-29T10:36:40;1.60;;;1.10;;
948;SDS011;461;51.436;7.312;2023-07-29T10:39:07;1.70;;;1.60;;
948;SDS011;461;51.436;7.312;2023-07-29T10:41:54;2.13;;;1.50;;
948;SDS011;461;51.436;7.312;2023-07-29T10:47:26;3.87;;;1.40;;
948;SDS011;461;51.436;7.312;2023-07-29T10:49:56;1.43;;;1.33;;
948;SDS011;461;51.436;7.312;2023-07-29T10:55:01;2.73;;;1.73;;
948;SDS011;461;51.436;7.312;2023-07-29T10:57:32;1.87;;;1.67;;
948;SDS011;461;51.436;7.312;2023-07-29T10:59:59;1.70;;;1.50;;
948;SDS011;461;51.436;7.312;2023-07-29T11:02:29;2.10;;;1.87;;
948;SDS011;461;51.436;7.312;2023-07-29T11:17:10;2.23;;;1.40;;
948;SDS011;461;51.436;7.312;2023-07-29T11:19:36;5.10;;;1.97;;
948;SDS011;461;51.436;7.312;2023-07-29T11:22:04;2.07;;;1.60;;
948;SDS011;461;51.436;7.312;2023-07-29T11:24:30;1.50;;;1.30;;
948;SDS011;461;51.436;7.312;2023-07-29T11:26:56;2.13;;;1.50;;
948;SDS011;461;51.436;7.312;2023-07-29T11:29:22;2.47;;;1.40;;
948;SDS011;461;51.436;7.312;2023-07-29T11:31:50;1.57;;;1.47;;
948;SDS011;461;51.436;7.312;2023-07-29T11:34:17;1.60;;;1.50;;
948;SDS011;461;51.436;7.312;2023-07-29T11:36:46;1.60;;;1.47;;
948;SDS011;461;51.436;7.312;2023-07-29T11:39:12;5.57;;;1.90;;
948;SDS011;461;51.436;7.312;2023-07-29T11:41:38;3.03;;;2.50;;
948;SDS011;461;51.436;7.312;2023-07-29T11:44:04;1.67;;;1.47;;
948;SDS011;461;51.436;7.312;2023-07-29T11:46:35;3.67;;;1.73;;
948;SDS011;461;51.436;7.312;2023-07-29T11:49:01;1.70;;;1.40;;
948;SDS011;461;51.436;7.312;2023-07-29T11:51:28;3.03;;;1.97;;
948;SDS011;461;51.436;7.312;2023-07-29T11:53:54;2.57;;;2.03;;
948;SDS011;461;51.436;7.312;2023-07-29T11:56:20;2.40;;;1.80;;
948;SDS011;461;51.436;7.312;2023-07-29T11:58:46;2.47;;;2.00;;
948;SDS011;461;51.436;7.312;2023-07-29T12:01:13;1.73;;;1.53;;
948;SDS011;461;51.436;7.312;2023-07-29T12:03:39;1.57;;;1.40;;
948;SDS011;461;51.436;7.312;2023-07-29T12:06:06;3.43;;;1.60;;
948;SDS011;461;51.436;7.312;2023-07-29T12:08:32;1.63;;;1.33;;
948;SDS011;461;51.436;7.312;2023-07-29T12:10:58;2.00;;;1.60;;
948;SDS011;461;51.436;7.312;2023-07-29T12:13:25;3.83;;;1.77;;
948;SDS011;461;51.436;7.312;2023-07-29T12:15:51;2.60;;;1.70;;
948;SDS011;461;51.436;7.312;2023-07-29T12:18:17;3.10;;;1.80;;
948;SDS011;461;51.436;7.312;2023-07-29T12:20:43;2.30;;;1.70;;
948;SDS011;461;51.436;7.312;2023-07-29T12:23:09;2.03;;;1.83;;
948;SDS011;461;51.436;7.312;2023-07-29T12:25:35;3.80;;;1.70;;
948;SDS011;461;51.436;7.312;2023-07-29T12:28:04;1.77;;;1.67;;
948;SDS011;461;51.436;7.312;2023-07-29T12:30:31;3.07;;;1.70;;
948;SDS011;461;51.436;7.312;2023-07-29T12:32:57;1.90;;;1.70;;
948;SDS011;461;51.436;7.312;2023-07-29T12:41:14;2.70;;;1.90;;
948;SDS011;461;51.436;7.312;2023-07-29T12:52:54;2.00;;;1.73;;
948;SDS011;461;51.436;7.312;2023-07-29T12:55:20;2.50;;;2.00;;
948;SDS011;461;51.436;7.312;2023-07-29T12:57:46;2.40;;;1.77;;
948;SDS011;461;51.436;7.312;2023-07-29T13:00:12;4.73;;;1.63;;
948;SDS011;461;51.436;7.312;2023-07-29T13:02:38;2.63;;;2.00;;
948;SDS011;461;51.436;7.312;2023-07-29T13:05:04;1.70;;;1.47;;
948;SDS011;461;51.436;7.312;2023-07-29T13:07:31;3.33;;;2.77;;
948;SDS011;461;51.436;7.312;2023-07-29T13:09:57;2.17;;;1.93;;
948;SDS011;461;51.436;7.312;2023-07-29T13:12:23;2.30;;;1.97;;
948;SDS011;461;51.436;7.312;2023-07-29T13:14:49;2.50;;;2.30;;
948;SDS011;461;51.436;7.312;2023-07-29T13:17:15;5.40;;;1.93;;
948;SDS011;461;51.436;7.312;2023-07-29T13:19:41;2.77;;;1.80;;
948;SDS011;461;51.436;7.312;2023-07-29T13:22:07;2.20;;;2.00;;
948;SDS011;461;51.436;7.312;2023-07-29T13:24:33;3.60;;;1.80;;
948;SDS011;461;51.436;7.312;2023-07-29T13:26:59;1.87;;;1.67;;
948;SDS011;461;51.436;7.312;2023-07-29T13:29:25;2.60;;;2.07;;
948;SDS011;461;51.436;7.312;2023-07-29T13:31:52;3.57;;;2.10;;
948;SDS011;461;51.436;7.312;2023-07-29T13:34:18;2.20;;;2.00;;
948;SDS011;461;51.436;7.312;2023-07-29T13:36:44;3.47;;;2.37;;
948;SDS011;461;51.436;7.312;2023-07-29T13:39:10;4.20;;;2.43;;
948;SDS011;461;51.436;7.312;2023-07-29T13:41:36;2.70;;;1.90;;
948;SDS011;461;51.436;7.312;2023-07-29T13:44:04;2.70;;;2.37;;
948;SDS011;461;51.436;7.312;2023-07-29T13:46:30;3.07;;;2.23;;
948;SDS011;461;51.436;7.312;2023-07-29T13:48:56;2.67;;;2.20;;
948;SDS011;461;51.436;7.312;2023-07-29T13:51:23;3.20;;;2.47;;
948;SDS011;461;51.436;7.312;2023-07-29T13:59:56;2.70;;;2.10;;
948;SDS011;461;51.436;7.312;2023-07-29T14:02:23;2.40;;;2.17;;
948;SDS011;461;51.436;7.312;2023-07-29T14:13:58;3.83;;;2.60;;
948;SDS011;461;51.436;7.312;2023-07-29T14:16:24;2.17;;;1.97;;
948;SDS011;461;51.436;7.312;2023-07-29T14:18:50;3.27;;;2.03;;
948;SDS011;461;51.436;7.312;2023-07-29T14:21:16;5.57;;;3.20;;
948;SDS011;461;51.436;7.312;2023-07-29T14:23:43;4.43;;;2.23;;
948;SDS011;461;51.436;7.312;2023-07-29T14:26:09;6.17;;;2.60;;
948;SDS011;461;51.436;7.312;2023-07-29T14:28:36;3.53;;;2.20;;
948;SDS011;461;51.436;7.312;2023-07-29T14:31:02;3.53;;;2.07;;
948;SDS011;461;51.436;7.312;2023-07-29T14:39:36;4.07;;;2.47;;
948;SDS011;461;51.436;7.312;2023-07-29T14:42:02;4.90;;;2.77;;
948;SDS011;461;51.436;7.312;2023-07-29T14:44:28;4.87;;;2.40;;
948;SDS011;461;51.436;7.312;2023-07-29T14:46:54;5.63;;;3.30;;
948;SDS011;461;51.436;7.312;2023-07-29T14:49:20;4.53;;;3.20;;
948;SDS011;461;51.436;7.312;2023-07-29T14:51:47;4.87;;;2.70;;
948;SDS011;461;51.436;7.312;2023-07-29T14:54:13;3.63;;;2.30;;
948;SDS011;461;51.436;7.312;2023-07-29T14:56:39;2.90;;;2.57;;
948;SDS011;461;51.436;7.312;2023-07-29T14:59:05;2.90;;;2.40;;
948;SDS011;461;51.436;7.312;2023-07-29T15:01:31;3.10;;;2.70;;
948;SDS011;461;51.436;7.312;2023-07-29T15:04:01;2.50;;;2.23;;
948;SDS011;461;51.436;7.312;2023-07-29T15:06:27;3.43;;;2.40;;
948;SDS011;461;51.436;7.312;2023-07-29T15:08:53;3.37;;;3.07;;
948;SDS011;461;51.436;7.312;2023-07-29T15:11:19;4.40;;;2.23;;
948;SDS011;461;51.436;7.312;2023-07-29T15:13:45;3.97;;;2.43;;
948;SDS011;461;51.436;7.312;2023-07-29T15:16:12;5.03;;;1.70;;
948;SDS011;461;51.436;7.312;2023-07-29T15:21:41;4.57;;;3.03;;
948;SDS011;461;51.436;7.312;2023-07-29T15:24:15;5.47;;;2.70;;
948;SDS011;461;51.436;7.312;2023-07-29T15:26:41;7.40;;;2.50;;
948;SDS011;461;51.436;7.312;2023-07-29T15:29:07;11.27;;;2.97;;
948;SDS011;461;51.436;7.312;2023-07-29T15:31:45;3.70;;;1.87;;
948;SDS011;461;51.436;7.312;2023-07-29T15:34:16;2.77;;;2.10;;
948;SDS011;461;51.436;7.312;2023-07-29T15:36:43;4.03;;;2.40;;
948;SDS011;461;51.436;7.312;2023-07-29T15:39:12;3.97;;;2.40;;
948;SDS011;461;51.436;7.312;2023-07-29T15:41:38;9.70;;;3.23;;
948;SDS011;461;51.436;7.312;2023-07-29T15:44:04;2.77;;;2.47;;
948;SDS011;461;51.436;7.312;2023-07-29T15:46:30;2.50;;;2.30;;
948;SDS011;461;51.436;7.312;2023-07-29T15:48:57;2.90;;;2.37;;
948;SDS011;461;51.436;7.312;2023-07-29T15:51:25;6.33;;;2.50;;
948;SDS011;461;51.436;7.312;2023-07-29T16:21:24;2.90;;;2.27;;
948;SDS011;461;51.436;7.312;2023-07-29T16:23:50;3.70;;;2.60;;
948;SDS011;461;51.436;7.312;2023-07-29T16:32:20;3.37;;;2.90;;
948;SDS011;461;51.436;7.312;2023-07-29T16:34:52;4.13;;;2.17;;
948;SDS011;461;51.436;7.312;2023-07-29T16:37:19;2.50;;;2.30;;
948;SDS011;461;51.436;7.312;2023-07-29T16:39:52;4.40;;;2.10;;
948;SDS011;461;51.436;7.312;2023-07-29T16:42:24;2.77;;;1.97;;
948;SDS011;461;51.436;7.312;2023-07-29T17:11:06;1.90;;;1.80;;
948;SDS011;461;51.436;7.312;2023-07-29T17:13:32;2.20;;;2.00;;
948;SDS011;461;51.436;7.312;2023-07-29T17:16:09;4.00;;;1.83;;
948;SDS011;461;51.436;7.312;2023-07-29T17:19:00;1.77;;;1.67;;
948;SDS011;461;51.436;7.312;2023-07-29T17:21:29;2.37;;;2.17;;
948;SDS011;461;51.436;7.312;2023-07-29T17:23:55;3.00;;;1.80;;
948;SDS011;461;51.436;7.312;2023-07-29T17:26:22;2.90;;;1.60;;
948;SDS011;461;51.436;7.312;2023-07-29T17:28:48;2.07;;;1.77;;
948;SDS011;461;51.436;7.312;2023-07-29T17:31:14;1.70;;;1.60;;
948;SDS011;461;51.436;7.312;2023-07-29T17:33:40;18.90;;;3.93;;
948;SDS011;461;51.436;7.312;2023-07-29T17:36:07;4.13;;;2.30;;
948;SDS011;461;51.436;7.312;2023-07-29T17:38:33;2.20;;;2.00;;
948;SDS011;461;51.436;7.312;2023-07-29T17:40:59;2.67;;;1.80;;
948;SDS011;461;51.436;7.312;2023-07-29T17:43:27;1.80;;;1.70;;
948;SDS011;461;51.436;7.312;2023-07-29T17:45:53;4.57;;;2.30;;
948;SDS011;461;51.436;7.312;2023-07-29T17:48:20;8.03;;;3.20;;
948;SDS011;461;51.436;7.312;2023-07-29T17:50:46;4.17;;;2.57;;
948;SDS011;461;51.436;7.312;2023-07-29T17:53:12;3.20;;;2.50;;
948;SDS011;461;51.436;7.312;2023-07-29T17:55:39;2.50;;;2.10;;
948;SDS011;461;51.436;7.312;2023-07-29T17:58:05;3.03;;;2.43;;
948;SDS011;461;51.436;7.312;2023-07-29T18:00:32;3.30;;;2.93;;
948;SDS011;461;51.436;7.312;2023-07-29T18:02:58;2.97;;;2.53;;
948;SDS011;461;51.436;7.312;2023-07-29T18:05:24;5.27;;;2.33;;
948;SDS011;461;51.436;7.312;2023-07-29T18:07:51;3.20;;;2.90;;
948;SDS011;461;51.436;7.312;2023-07-29T18:10:17;3.90;;;3.17;;
948;SDS011;461;51.436;7.312;2023-07-29T18:21:54;4.90;;;3.10;;
948;SDS011;461;51.436;7.312;2023-07-29T18:24:20;6.80;;;3.87;;
948;SDS011;461;51.436;7.312;2023-07-29T18:26:46;10.13;;;3.90;;
948;SDS011;461;51.436;7.312;2023-07-29T18:29:12;7.03;;;3.30;;
948;SDS011;461;51.436;7.312;2023-07-29T18:37:46;6.17;;;3.87;;
948;SDS011;461;51.436;7.312;2023-07-29T18:40:16;4.90;;;3.17;;
948;SDS011;461;51.436;7.312;2023-07-29T18:42:42;2.37;;;2.10;;
948;SDS011;461;51.436;7.312;2023-07-29T18:45:08;3.00;;;1.93;;
948;SDS011;461;51.436;7.312;2023-07-29T18:47:34;3.00;;;2.17;;
948;SDS011;461;51.436;7.312;2023-07-29T18:50:00;3.47;;;2.00;;
948;SDS011;461;51.436;7.312;2023-07-29T19:01:39;2.50;;;1.80;;
948;SDS011;461;51.436;7.312;2023-07-29T19:04:05;5.93;;;2.00;;
948;SDS011;461;51.436;7.312;2023-07-29T19:06:31;3.97;;;2.07;;
948;SDS011;461;51.436;7.312;2023-07-29T19:08:57;4.20;;;2.50;;
948;SDS011;461;51.436;7.312;2023-07-29T19:11:23;2.17;;;1.97;;
948;SDS011;461;51.436;7.312;2023-07-29T19:13:50;2.80;;;1.90;;
948;SDS011;461;51.436;7.312;2023-07-29T19:16:16;2.53;;;1.93;;
948;SDS011;461;51.436;7.312;2023-07-29T19:18:45;3.30;;;1.90;;
948;SDS011;461;51.436;7.312;2023-07-29T19:21:11;5.40;;;2.80;;
948;SDS011;461;51.436;7.312;2023-07-29T19:23:37;4.20;;;2.43;;
948;SDS011;461;51.436;7.312;2023-07-29T19:26:03;5.57;;;2.37;;
948;SDS011;461;51.436;7.312;2023-07-29T19:28:29;8.83;;;2.60;;
948;SDS011;461;51.436;7.312;2023-07-29T19:30:55;7.27;;;2.57;;
948;SDS011;461;51.436;7.312;2023-07-29T19:33:21;2.60;;;2.40;;
948;SDS011;461;51.436;7.312;2023-07-29T19:44:54;2.83;;;2.30;;
948;SDS011;461;51.436;7.312;2023-07-29T19:47:20;3.00;;;2.10;;
948;SDS011;461;51.436;7.312;2023-07-29T19:49:47;3.90;;;2.67;;
948;SDS011;461;51.436;7.312;2023-07-29T19:52:13;4.60;;;2.63;;
948;SDS011;461;51.436;7.312;2023-07-29T19:54:39;2.40;;;2.17;;
948;SDS011;461;51.436;7.312;2023-07-29T19:57:05;3.40;;;3.10;;
948;SDS011;461;51.436;7.312;2023-07-29T19:59:32;3.30;;;2.47;;
948;SDS011;461;51.436;7.312;2023-07-29T20:08:17;3.23;;;2.50;;
948;SDS011;461;51.436;7.312;2023-07-29T20:10:43;4.10;;;3.30;;
948;SDS011;461;51.436;7.312;2023-07-29T20:13:11;3.60;;;2.93;;
948;SDS011;461;51.436;7.312;2023-07-29T20:15:37;4.67;;;2.97;;
948;SDS011;461;51.436;7.312;2023-07-29T20:18:03;4.70;;;2.80;;
948;SDS011;461;51.436;7.312;2023-07-29T20:20:29;5.00;;;3.23;;
948;SDS011;461;51.436;7.312;2023-07-29T20:22:55;3.90;;;3.30;;
948;SDS011;461;51.436;7.312;2023-07-29T20:25:21;6.33;;;3.83;;
948;SDS011;461;51.436;7.312;2023-07-29T20:27:47;4.30;;;3.10;;
948;SDS011;461;51.436;7.312;2023-07-29T20:30:13;4.63;;;2.80;;
948;SDS011;461;51.436;7.312;2023-07-29T20:32:40;4.30;;;2.80;;
948;SDS011;461;51.436;7.312;2023-07-29T20:38:12;4.90;;;3.47;;
948;SDS011;461;51.436;7.312;2023-07-29T20:40:39;3.60;;;3.20;;
948;SDS011;461;51.436;7.312;2023-07-29T20:43:05;3.70;;;2.87;;
948;SDS011;461;51.436;7.312;2023-07-29T20:45:31;3.67;;;2.83;;
948;SDS011;461;51.436;7.312;2023-07-29T20:51:01;21.67;;;6.23;;
948;SDS011;461;51.436;7.312;2023-07-29T20:53:27;22.80;;;4.63;;
948;SDS011;461;51.436;7.312;2023-07-29T20:55:53;6.03;;;3.70;;
948;SDS011;461;51.436;7.312;2023-07-29T20:58:19;4.17;;;3.67;;
948;SDS011;461;51.436;7.312;2023-07-29T21:00:45;6.13;;;3.90;;
948;SDS011;461;51.436;7.312;2023-07-29T21:03:11;6.63;;;4.27;;
948;SDS011;461;51.436;7.312;2023-07-29T21:05:37;4.30;;;3.90;;
948;SDS011;461;51.436;7.312;2023-07-29T21:08:03;5.43;;;4.00;;
948;SDS011;461;51.436;7.312;2023-07-29T21:10:30;5.57;;;4.47;;
948;SDS011;461;51.436;7.312;2023-07-29T21:12:57;6.47;;;3.83;;
948;SDS011;461;51.436;7.312;2023-07-29T21:15:23;5.93;;;4.33;;
948;SDS011;461;51.436;7.312;2023-07-29T21:17:49;5.43;;;3.83;;
948;SDS011;461;51.436;7.312;2023-07-29T21:20:15;5.40;;;3.73;;
948;SDS011;461;51.436;7.312;2023-07-29T21:22:41;4.50;;;3.77;;
948;SDS011;461;51.436;7.312;2023-07-29T21:25:07;5.53;;;3.47;;
948;SDS011;461;51.436;7.312;2023-07-29T21:30:37;4.50;;;3.63;;
948;SDS011;461;51.436;7.312;2023-07-29T21:33:03;4.10;;;3.60;;
948;SDS011;461;51.436;7.312;2023-07-29T21:35:29;4.37;;;3.97;;
948;SDS011;461;51.436;7.312;2023-07-29T21:37:55;5.53;;;3.60;;
948;SDS011;461;51.436;7.312;2023-07-29T21:40:21;6.97;;;4.20;;
948;SDS011;461;51.436;7.312;2023-07-29T21:42:47;3.77;;;3.23;;
948;SDS011;461;51.436;7.312;2023-07-29T21:45:13;31.53;;;6.83;;
948;SDS011;461;51.436;7.312;2023-07-29T21:47:39;8.03;;;4.23;;
948;SDS011;461;51.436;7.312;2023-07-29T21:50:05;10.50;;;4.77;;
948;SDS011;461;51.436;7.312;2023-07-29T21:52:32;196.57;;;16.07;;
948;SDS011;461;51.436;7.312;2023-07-29T21:54:58;9.30;;;5.13;;
948;SDS011;461;51.436;7.312;2023-07-29T22:06:35;6.03;;;5.43;;
948;SDS011;461;51.436;7.312;2023-07-29T22:09:01;7.10;;;5.70;;
948;SDS011;461;51.436;7.312;2023-07-29T22:11:28;6.27;;;5.40;;
948;SDS011;461;51.436;7.312;2023-07-29T22:13:55;7.57;;;6.73;;
948;SDS011;461;51.436;7.312;2023-07-29T22:16:21;10.10;;;7.20;;
948;SDS011;461;51.436;7.312;2023-07-29T22:18:47;6.70;;;5.43;;
948;SDS011;461;51.436;7.312;2023-07-29T22:51:21;7.00;;;5.20;;
948;SDS011;461;51.436;7.312;2023-07-29T22:53:47;7.07;;;5.17;;
948;SDS011;461;51.436;7.312;2023-07-29T22:56:13;6.10;;;4.60;;
948;SDS011;461;51.436;7.312;2023-07-29T22:58:39;11.43;;;5.50;;
948;SDS011;461;51.436;7.312;2023-07-29T23:01:05;5.23;;;4.60;;
948;SDS011;461;51.436;7.312;2023-07-29T23:03:32;6.53;;;4.53;;
948;SDS011;461;51.436;7.312;2023-07-29T23:05:58;8.13;;;4.87;;
948;SDS011;461;51.436;7.312;2023-07-29T23:14:31;9.43;;;4.30;;
948;SDS011;461;51.436;7.312;2023-07-29T23:16:57;8.00;;;4.87;;
948;SDS011;461;51.436;7.312;2023-07-29T23:19:23;9.37;;;4.80;;
948;SDS011;461;51.436;7.312;2023-07-29T23:21:49;5.70;;;4.30;;
948;SDS011;461;51.436;7.312;2023-07-29T23:24:15;8.87;;;5.57;;
948;SDS011;461;51.436;7.312;2023-07-29T23:26:42;6.63;;;4.70;;
948;SDS011;461;51.436;7.312;2023-07-29T23:29:08;7.43;;;5.30;;
948;SDS011;461;51.436;7.312;2023-07-29T23:31:34;6.80;;;4.90;;
948;SDS011;461;51.436;7.312;2023-07-29T23:34:00;6.73;;;4.40;;
948;SDS011;461;51.436;7.312;2023-07-29T23:36:26;5.57;;;4.43;;
948;SDS011;461;51.436;7.312;2023-07-29T23:38:52;13.50;;;4.27;;
948;SDS011;461;51.436;7.312;2023-07-29T23:41:18;5.77;;;4.43;;
948;SDS011;461;51.436;7.312;2023-07-29T23:43:44;6.23;;;5.63;;
948;SDS011;461;51.436;7.312;2023-07-29T23:46:10;8.40;;;4.70;;
948;SDS011;461;51.436;7.312;2023-07-29T23:48:36;5.83;;;4.67;;
948;SDS011;461;51.436;7.312;2023-07-29T23:57:09;7.77;;;4.27;;
948;SDS011;461;51.436;7.312;2023-07-29T23:59:36;5.60;;;4.03;;
